createdAt,value
2023-03-22T00:01:37.952Z,100997.23
2023-03-22T00:04:06.271Z,100999.86
2023-03-22T00:06:34.794Z,101001.06
2023-03-22T00:09:03.209Z,101002.92
2023-03-22T00:11:31.666Z,101004.13
2023-03-22T00:14:00.270Z,101003.13
2023-03-22T00:16:28.737Z,101004.20
2023-03-22T00:18:57.209Z,101000.45
2023-03-22T00:21:25.786Z,100998.08
2023-03-22T00:23:54.167Z,100998.02
2023-03-22T00:26:22.649Z,101000.13
2023-03-22T00:28:51.135Z,101001.86
2023-03-22T00:31:20.260Z,100999.36
2023-03-22T00:33:48.754Z,100998.77
2023-03-22T00:36:17.190Z,101000.52
2023-03-22T00:38:45.781Z,100998.08
2023-03-22T00:41:21.541Z,100995.70
2023-03-22T00:43:51.037Z,100999.19
2023-03-22T00:46:21.330Z,101000.61
2023-03-22T00:48:49.748Z,100999.21
2023-03-22T00:51:18.428Z,101000.13
2023-03-22T00:53:49.998Z,101001.52
2023-03-22T00:56:19.076Z,101004.52
2023-03-22T00:58:47.355Z,101003.56
2023-03-22T01:01:15.807Z,101003.73
2023-03-22T01:03:44.456Z,101001.14
2023-03-22T01:06:12.898Z,101005.54
2023-03-22T01:08:41.387Z,101002.48
2023-03-22T01:11:10.596Z,100999.14
2023-03-22T01:13:39.672Z,100997.98
2023-03-22T01:16:09.901Z,101001.74
2023-03-22T01:18:38.394Z,100999.16
2023-03-22T01:21:07.412Z,100993.88
2023-03-22T01:23:35.985Z,100992.40
2023-03-22T01:26:05.767Z,100988.06
2023-03-22T01:28:34.459Z,100984.09
2023-03-22T01:31:03.474Z,100982.17
2023-03-22T01:33:31.854Z,100980.16
2023-03-22T01:36:00.649Z,100978.98
2023-03-22T01:38:28.997Z,100976.45
2023-03-22T01:40:57.796Z,100972.97
2023-03-22T01:43:26.176Z,100969.94
2023-03-22T01:45:55.352Z,100966.57
2023-03-22T01:48:48.915Z,100965.68
2023-03-22T01:51:19.977Z,100964.86
2023-03-22T01:53:55.684Z,100959.77
2023-03-22T01:56:26.261Z,100961.54
2023-03-22T01:58:55.765Z,100963.27
2023-03-22T02:01:24.696Z,100966.46
2023-03-22T02:04:03.893Z,100969.60
2023-03-22T02:06:32.782Z,100971.34
2023-03-22T02:09:01.477Z,100973.90
2023-03-22T02:11:33.936Z,100975.80
2023-03-22T02:14:11.743Z,100978.10
2023-03-22T02:16:58.460Z,100977.54
2023-03-22T02:20:13.120Z,100974.63
2023-03-22T02:23:14.881Z,100977.12
2023-03-22T02:26:20.945Z,100972.58
2023-03-22T02:29:04.480Z,100968.32
2023-03-22T02:31:47.916Z,100970.46
2023-03-22T02:34:41.280Z,100969.49
2023-03-22T02:37:27.471Z,100971.98
2023-03-22T02:40:14.394Z,100968.25
2023-03-22T02:42:45.733Z,100968.48
2023-03-22T02:45:18.948Z,100970.09
2023-03-22T02:47:54.612Z,100976.41
2023-03-22T02:50:28.730Z,100975.62
2023-03-22T02:53:05.875Z,100976.04
2023-03-22T02:55:59.035Z,100975.13
2023-03-22T02:58:57.624Z,100979.08
2023-03-22T03:01:29.534Z,100985.16
2023-03-22T03:04:01.473Z,100986.88
2023-03-22T03:06:31.241Z,100984.70
2023-03-22T03:09:05.102Z,100985.59
2023-03-22T03:11:33.859Z,100989.27
2023-03-22T03:14:02.142Z,100989.88
2023-03-22T03:16:35.303Z,100990.92
2023-03-22T03:19:11.284Z,100994.29
2023-03-22T03:21:51.465Z,100993.30
2023-03-22T03:24:49.720Z,100991.98
2023-03-22T03:27:24.243Z,100995.46
2023-03-22T03:30:02.495Z,100997.37
2023-03-22T03:32:47.838Z,100992.93
2023-03-22T03:35:32.761Z,100994.83
2023-03-22T03:38:08.974Z,100997.59
2023-03-22T03:40:42.260Z,101000.31
2023-03-22T03:43:11.456Z,101002.29
2023-03-22T03:45:40.189Z,101002.92
2023-03-22T03:48:20.040Z,101005.16
2023-03-22T03:50:51.439Z,101007.42
2023-03-22T03:53:19.735Z,101011.98
2023-03-22T03:55:48.146Z,101015.39
2023-03-22T03:58:17.111Z,101021.14
2023-03-22T04:00:46.777Z,101023.71
2023-03-22T04:03:15.356Z,101022.72
2023-03-22T04:05:44.077Z,101024.15
2023-03-22T04:08:12.471Z,101025.48
2023-03-22T04:10:41.305Z,101022.77
2023-03-22T04:13:10.513Z,101025.42
2023-03-22T04:15:38.820Z,101025.48
2023-03-22T04:18:09.901Z,101025.18
2023-03-22T04:20:42.022Z,101031.40
2023-03-22T04:23:11.330Z,101037.78
2023-03-22T04:25:39.716Z,101041.47
2023-03-22T04:28:09.964Z,101044.16
2023-03-22T04:30:39.127Z,101051.13
2023-03-22T04:33:07.736Z,101051.39
2023-03-22T04:35:36.238Z,101057.02
2023-03-22T04:38:04.686Z,101058.24
2023-03-22T04:40:36.917Z,101059.97
2023-03-22T04:43:05.636Z,101065.57
2023-03-22T04:45:35.346Z,101068.09
2023-03-22T04:48:04.080Z,101066.52
2023-03-22T04:50:32.309Z,101067.58
2023-03-22T04:53:00.690Z,101068.76
2023-03-22T04:55:30.291Z,101069.19
2023-03-22T04:57:58.621Z,101065.53
2023-03-22T05:00:30.649Z,101065.43
2023-03-22T05:02:59.074Z,101067.40
2023-03-22T05:05:27.461Z,101070.73
2023-03-22T05:07:56.622Z,101075.55
2023-03-22T05:10:24.872Z,101081.97
2023-03-22T05:12:53.293Z,101082.00
2023-03-22T05:15:21.792Z,101081.35
2023-03-22T05:17:50.232Z,101082.06
2023-03-22T05:20:18.900Z,101085.73
2023-03-22T05:22:50.758Z,101088.97
2023-03-22T05:25:19.139Z,101091.16
2023-03-22T05:27:50.518Z,101096.94
2023-03-22T05:30:19.176Z,101099.00
2023-03-22T05:32:47.775Z,101101.55
2023-03-22T05:35:16.350Z,101103.21
2023-03-22T05:37:45.032Z,101106.68
2023-03-22T05:40:13.759Z,101108.41
2023-03-22T05:42:42.414Z,101113.05
2023-03-22T05:45:12.337Z,101110.25
2023-03-22T05:47:40.702Z,101117.10
2023-03-22T05:50:10.942Z,101113.21
2023-03-22T05:52:39.228Z,101117.17
2023-03-22T05:55:08.096Z,101121.40
2023-03-22T05:57:36.378Z,101122.64
2023-03-22T06:00:13.621Z,101124.28
2023-03-22T06:02:43.300Z,101128.63
2023-03-22T06:05:12.063Z,101130.37
2023-03-22T06:07:41.570Z,101133.80
2023-03-22T06:10:12.582Z,101135.17
2023-03-22T06:12:41.341Z,101139.42
2023-03-22T06:15:09.991Z,101146.25
2023-03-22T06:17:38.983Z,101147.46
2023-03-22T06:20:12.200Z,101150.03
2023-03-22T06:22:41.162Z,101151.11
2023-03-22T06:25:11.239Z,101154.45
2023-03-22T06:27:39.556Z,101155.73
2023-03-22T06:30:08.759Z,101154.52
2023-03-22T06:32:37.029Z,101150.77
2023-03-22T06:35:06.022Z,101151.10
2023-03-22T06:37:34.200Z,101153.02
2023-03-22T06:40:02.785Z,101156.46
2023-03-22T06:42:34.540Z,101157.49
2023-03-22T06:45:03.428Z,101159.36
2023-03-22T06:47:31.708Z,101160.12
2023-03-22T06:50:00.184Z,101159.68
2023-03-22T06:52:28.595Z,101159.59
2023-03-22T06:54:57.252Z,101163.27
2023-03-22T06:57:25.933Z,101167.27
2023-03-22T06:59:54.447Z,101165.80
2023-03-22T07:02:22.769Z,101173.36
2023-03-22T07:04:51.206Z,101175.70
2023-03-22T07:07:19.702Z,101177.39
2023-03-22T07:09:48.137Z,101183.17
2023-03-22T07:12:17.141Z,101184.27
2023-03-22T07:14:45.720Z,101190.95
2023-03-22T07:17:14.468Z,101192.74
2023-03-22T07:19:43.299Z,101194.80
2023-03-22T07:22:11.811Z,101195.08
2023-03-22T07:24:53.817Z,101192.44
2023-03-22T07:27:25.252Z,101190.73
2023-03-22T07:29:53.630Z,101193.29
2023-03-22T07:32:22.074Z,101190.97
2023-03-22T07:34:50.578Z,101191.54
2023-03-22T07:37:18.970Z,101193.89
2023-03-22T07:39:47.332Z,101195.88
2023-03-22T07:42:15.835Z,101196.46
2023-03-22T07:44:44.299Z,101195.91
2023-03-22T07:47:13.538Z,101195.29
2023-03-22T07:49:41.776Z,101195.98
2023-03-22T07:52:10.570Z,101199.16
2023-03-22T07:54:39.456Z,101200.39
2023-03-22T07:57:08.686Z,101198.21
2023-03-22T07:59:39.796Z,101195.06
2023-03-22T08:02:11.028Z,101196.14
2023-03-22T08:04:39.529Z,101192.81
2023-03-22T08:07:10.368Z,101195.46
2023-03-22T08:09:39.173Z,101196.98
2023-03-22T08:12:07.548Z,101199.55
2023-03-22T08:14:37.907Z,101203.66
2023-03-22T08:17:06.991Z,101204.44
2023-03-22T08:19:36.115Z,101201.91
2023-03-22T08:22:05.571Z,101205.11
2023-03-22T08:24:34.036Z,101205.84
2023-03-22T08:27:02.539Z,101206.55
2023-03-22T08:29:30.943Z,101206.27
2023-03-22T08:32:02.669Z,101209.32
2023-03-22T08:34:31.650Z,101210.13
2023-03-22T08:36:59.851Z,101211.56
2023-03-22T08:39:28.715Z,101213.66
2023-03-22T08:41:57.000Z,101214.46
2023-03-22T08:44:26.200Z,101216.59
2023-03-22T08:46:55.491Z,101216.41
2023-03-22T08:49:23.873Z,101217.96
2023-03-22T08:51:52.250Z,101220.90
2023-03-22T08:54:21.051Z,101227.45
2023-03-22T08:56:50.459Z,101225.08
2023-03-22T08:59:18.924Z,101230.17
2023-03-22T09:01:47.513Z,101229.02
2023-03-22T09:04:16.408Z,101226.44
2023-03-22T09:06:45.907Z,101229.70
2023-03-22T09:09:14.817Z,101229.17
2023-03-22T09:17:45.783Z,101228.59
2023-03-22T09:20:14.153Z,101227.71
2023-03-22T09:22:42.968Z,101228.31
2023-03-22T09:25:12.942Z,101235.70
2023-03-22T09:27:41.645Z,101233.71
2023-03-22T09:30:11.386Z,101234.07
2023-03-22T09:32:42.720Z,101232.66
2023-03-22T09:35:11.190Z,101233.30
2023-03-22T09:37:39.572Z,101237.19
2023-03-22T09:40:08.664Z,101236.79
2023-03-22T09:42:49.128Z,101238.57
2023-03-22T09:45:21.434Z,101237.70
2023-03-22T09:47:53.301Z,101233.69
2023-03-22T09:50:24.267Z,101235.80
2023-03-22T09:52:53.503Z,101237.70
2023-03-22T09:59:47.713Z,101235.93
2023-03-22T10:02:34.252Z,101234.40
2023-03-22T10:05:39.808Z,101233.30
2023-03-22T10:08:19.002Z,101238.35
2023-03-22T10:10:47.480Z,101236.75
2023-03-22T10:13:21.604Z,101237.35
2023-03-22T10:15:59.993Z,101232.66
2023-03-22T10:18:41.906Z,101237.66
2023-03-22T10:21:12.228Z,101231.95
2023-03-22T10:23:44.275Z,101232.05
2023-03-22T10:26:21.930Z,101232.79
2023-03-22T10:29:04.120Z,101233.98
2023-03-22T10:31:34.683Z,101231.88
2023-03-22T10:34:06.894Z,101232.27
2023-03-22T10:36:37.455Z,101234.11
2023-03-22T10:39:26.293Z,101234.11
2023-03-22T10:41:57.959Z,101232.48
2023-03-22T10:44:28.059Z,101227.83
2023-03-22T10:46:57.671Z,101222.31
2023-03-22T10:49:32.758Z,101216.79
2023-03-22T10:52:14.501Z,101216.89
2023-03-22T10:54:43.227Z,101215.96
2023-03-22T10:57:11.776Z,101211.41
2023-03-22T10:59:51.251Z,101208.23
2023-03-22T11:02:22.253Z,101205.40
2023-03-22T11:04:53.825Z,101199.80
2023-03-22T11:07:31.166Z,101197.77
2023-03-22T11:10:08.596Z,101197.05
2023-03-22T11:12:59.601Z,101194.50
2023-03-22T11:15:29.435Z,101191.27
2023-03-22T11:18:16.156Z,101191.14
2023-03-22T11:20:56.897Z,101193.97
2023-03-22T11:23:26.198Z,101187.69
2023-03-22T11:25:57.342Z,101188.86
2023-03-22T11:28:34.857Z,101188.94
2023-03-22T11:31:11.002Z,101192.98
2023-03-22T11:33:58.932Z,101193.92
2023-03-22T11:36:28.755Z,101191.26
2023-03-22T11:38:59.379Z,101189.05
2023-03-22T11:41:30.635Z,101186.59
2023-03-22T11:44:03.178Z,101185.47
2023-03-22T11:46:32.386Z,101187.91
2023-03-22T11:49:08.547Z,101189.52
2023-03-22T11:51:39.089Z,101188.11
2023-03-22T11:54:09.836Z,101191.32
2023-03-22T11:56:43.372Z,101187.13
2023-03-22T11:59:26.756Z,101188.55
2023-03-22T12:02:28.290Z,101184.20
2023-03-22T12:05:02.511Z,101184.52
2023-03-22T12:07:32.138Z,101187.45
2023-03-22T12:10:28.994Z,101187.85
2023-03-22T12:13:33.505Z,101187.50
2023-03-22T12:16:05.528Z,101186.61
2023-03-22T12:18:51.669Z,101190.13
2023-03-22T12:21:19.982Z,101190.13
2023-03-22T12:23:48.428Z,101185.95
2023-03-22T12:26:28.925Z,101188.71
2023-03-22T12:29:16.012Z,101188.91
2023-03-22T12:31:59.642Z,101184.52
2023-03-22T12:34:41.666Z,101188.42
2023-03-22T12:37:16.142Z,101185.45
2023-03-22T12:39:51.616Z,101182.53
2023-03-22T12:42:50.811Z,101177.44
2023-03-22T12:45:27.731Z,101176.61
2023-03-22T12:48:06.952Z,101174.45
2023-03-22T12:50:39.617Z,101173.89
2023-03-22T12:53:13.536Z,101171.55
2023-03-22T12:55:42.467Z,101169.34
2023-03-22T12:58:14.601Z,101167.63
2023-03-22T13:00:48.529Z,101166.33
2023-03-22T13:03:17.877Z,101167.33
2023-03-22T13:05:48.463Z,101168.71
2023-03-22T13:08:21.928Z,101163.73
2023-03-22T13:11:01.673Z,101161.78
2023-03-22T13:13:30.066Z,101161.27
2023-03-22T13:16:13.481Z,101160.73
2023-03-22T13:18:45.552Z,101158.52
2023-03-22T13:21:19.406Z,101155.14
2023-03-22T13:23:56.857Z,101154.36
2023-03-22T13:26:47.718Z,101149.20
2023-03-22T13:29:37.333Z,101149.59
2023-03-22T13:32:24.619Z,101147.27
2023-03-22T13:34:53.763Z,101141.71
2023-03-22T13:37:37.620Z,101140.23
2023-03-22T13:40:30.236Z,101136.61
2023-03-22T13:43:14.051Z,101131.33
2023-03-22T13:46:06.522Z,101137.53
2023-03-22T13:48:44.860Z,101136.91
2023-03-22T13:51:22.263Z,101136.73
2023-03-22T13:54:24.602Z,101136.77
2023-03-22T13:57:00.458Z,101136.82
2023-03-22T13:59:32.630Z,101136.36
2023-03-22T14:02:18.661Z,101137.53
2023-03-22T14:04:51.171Z,101135.60
2023-03-22T14:07:19.886Z,101134.89
2023-03-22T14:09:54.889Z,101135.30
2023-03-22T14:12:32.871Z,101134.60
2023-03-22T14:15:04.781Z,101131.11
2023-03-22T14:17:41.195Z,101131.27
2023-03-22T14:20:14.783Z,101129.89
